sensor_id;sensor_type;location;lat;lon;timestamp;pressure;altitude;pressure_sealevel;temperature;humidity
2339;BME280;1180;51.438;6.978;2022-08-01T00:01:04;100287.44;;;21.94;100.00
2339;BME280;1180;51.438;6.978;2022-08-01T00:03:30;100295.88;;;22.13;100.00
2339;BME280;1180;51.438;6.978;2022-08-01T00:05:55;100289.22;;;22.10;100.00
2339;BME280;1180;51.438;6.978;2022-08-01T00:08:21;100291.50;;;22.05;100.00
2339;BME280;1180;51.438;6.978;2022-08-01T00:10:47;100300.78;;;22.07;100.00
2339;BME280;1180;51.438;6.978;2022-08-01T00:13:12;100294.22;;;22.20;100.00
2339;BME280;1180;51.438;6.978;2022-08-01T00:15:38;100296.25;;;22.01;100.00
2339;BME280;1180;51.438;6.978;2022-08-01T00:18:03;100293.78;;;22.08;100.00
2339;BME280;1180;51.438;6.978;2022-08-01T00:20:28;100292.81;;;22.09;100.00
2339;BME280;1180;51.438;6.978;2022-08-01T00:22:54;100297.38;;;22.07;100.00
2339;BME280;1180;51.438;6.978;2022-08-01T00:25:19;100302.25;;;22.02;100.00
2339;BME280;1180;51.438;6.978;2022-08-01T00:27:44;100301.47;;;22.01;100.00
2339;BME280;1180;51.438;6.978;2022-08-01T00:30:10;100301.13;;;22.04;100.00
2339;BME280;1180;51.438;6.978;2022-08-01T00:32:35;100300.31;;;22.04;100.00
2339;BME280;1180;51.438;6.978;2022-08-01T00:35:00;100297.03;;;22.02;100.00
2339;BME280;1180;51.438;6.978;2022-08-01T00:37:26;100298.53;;;22.04;100.00
2339;BME280;1180;51.438;6.978;2022-08-01T00:39:51;100306.84;;;22.16;100.00
2339;BME280;1180;51.438;6.978;2022-08-01T00:42:17;100304.88;;;22.10;100.00
2339;BME280;1180;51.438;6.978;2022-08-01T00:44:42;100298.19;;;22.07;100.00
2339;BME280;1180;51.438;6.978;2022-08-01T00:47:08;100296.59;;;21.90;100.00
2339;BME280;1180;51.438;6.978;2022-08-01T00:49:33;100299.50;;;21.95;100.00
2339;BME280;1180;51.438;6.978;2022-08-01T00:51:59;100293.63;;;21.93;100.00
2339;BME280;1180;51.438;6.978;2022-08-01T00:54:26;100292.00;;;22.00;100.00
2339;BME280;1180;51.438;6.978;2022-08-01T00:56:52;100291.81;;;21.93;100.00
2339;BME280;1180;51.438;6.978;2022-08-01T00:59:18;100284.81;;;21.94;100.00
2339;BME280;1180;51.438;6.978;2022-08-01T01:01:45;100288.22;;;22.03;100.00
2339;BME280;1180;51.438;6.978;2022-08-01T01:04:11;100290.31;;;22.16;100.00
2339;BME280;1180;51.438;6.978;2022-08-01T01:15:02;100286.59;;;22.10;100.00
2339;BME280;1180;51.438;6.978;2022-08-01T01:17:37;100286.59;;;22.10;100.00
2339;BME280;1180;51.438;6.978;2022-08-01T01:20:05;100288.56;;;22.08;100.00
2339;BME280;1180;51.438;6.978;2022-08-01T01:25:26;100280.19;;;22.13;100.00
2339;BME280;1180;51.438;6.978;2022-08-01T01:30:51;100300.16;;;21.97;100.00
2339;BME280;1180;51.438;6.978;2022-08-01T01:33:19;100300.16;;;22.05;100.00
2339;BME280;1180;51.438;6.978;2022-08-01T01:35:49;100297.19;;;22.08;100.00
2339;BME280;1180;51.438;6.978;2022-08-01T01:38:21;100289.03;;;22.12;100.00
2339;BME280;1180;51.438;6.978;2022-08-01T01:40:49;100302.59;;;22.07;100.00
2339;BME280;1180;51.438;6.978;2022-08-01T01:43:16;100302.28;;;22.10;100.00
2339;BME280;1180;51.438;6.978;2022-08-01T01:45:42;100305.72;;;22.02;100.00
2339;BME280;1180;51.438;6.978;2022-08-01T01:48:10;100303.72;;;22.13;100.00
2339;BME280;1180;51.438;6.978;2022-08-01T01:50:38;100306.38;;;21.96;100.00
2339;BME280;1180;51.438;6.978;2022-08-01T01:53:05;100309.63;;;22.06;100.00
2339;BME280;1180;51.438;6.978;2022-08-01T01:55:32;100305.72;;;22.02;100.00
2339;BME280;1180;51.438;6.978;2022-08-01T01:57:59;100303.59;;;22.06;100.00
2339;BME280;1180;51.438;6.978;2022-08-01T02:00:26;100302.09;;;22.03;100.00
2339;BME280;1180;51.438;6.978;2022-08-01T02:02:53;100300.66;;;22.09;100.00
2339;BME280;1180;51.438;6.978;2022-08-01T02:05:22;100300.78;;;22.07;100.00
2339;BME280;1180;51.438;6.978;2022-08-01T02:07:49;100305.22;;;21.99;100.00
2339;BME280;1180;51.438;6.978;2022-08-01T02:10:17;100299.97;;;21.99;100.00
2339;BME280;1180;51.438;6.978;2022-08-01T02:12:43;100293.13;;;21.98;100.00
2339;BME280;1180;51.438;6.978;2022-08-01T02:15:12;100296.72;;;21.97;100.00
2339;BME280;1180;51.438;6.978;2022-08-01T02:17:42;100304.41;;;21.98;100.00
2339;BME280;1180;51.438;6.978;2022-08-01T02:20:09;100299.00;;;21.91;100.00
2339;BME280;1180;51.438;6.978;2022-08-01T02:22:53;100302.78;;;21.97;100.00
2339;BME280;1180;51.438;6.978;2022-08-01T02:25:31;100294.78;;;21.90;100.00
2339;BME280;1180;51.438;6.978;2022-08-01T02:30:46;100301.16;;;21.96;100.00
2339;BME280;1180;51.438;6.978;2022-08-01T02:33:18;100294.44;;;21.93;100.00
2339;BME280;1180;51.438;6.978;2022-08-01T02:35:52;100297.56;;;21.89;100.00
2339;BME280;1180;51.438;6.978;2022-08-01T02:38:22;100290.03;;;21.86;100.00
2339;BME280;1180;51.438;6.978;2022-08-01T02:40:50;100301.16;;;21.88;100.00
2339;BME280;1180;51.438;6.978;2022-08-01T02:43:19;100293.00;;;21.91;100.00
2339;BME280;1180;51.438;6.978;2022-08-01T02:45:48;100296.06;;;21.95;100.00
2339;BME280;1180;51.438;6.978;2022-08-01T02:48:16;100289.72;;;21.89;100.00
2339;BME280;1180;51.438;6.978;2022-08-01T02:50:46;100288.56;;;21.91;100.00
2339;BME280;1180;51.438;6.978;2022-08-01T02:53:13;100292.81;;;21.92;100.00
2339;BME280;1180;51.438;6.978;2022-08-01T02:55:40;100289.72;;;21.97;100.00
2339;BME280;1180;51.438;6.978;2022-08-01T02:58:09;100287.09;;;21.97;100.00
2339;BME280;1180;51.438;6.978;2022-08-01T03:00:38;100280.41;;;21.95;100.00
2339;BME280;1180;51.438;6.978;2022-08-01T03:03:06;100281.06;;;21.88;100.00
2339;BME280;1180;51.438;6.978;2022-08-01T03:05:32;100290.84;;;21.86;100.00
2339;BME280;1180;51.438;6.978;2022-08-01T03:08:00;100288.41;;;21.85;100.00
2339;BME280;1180;51.438;6.978;2022-08-01T03:10:29;100285.47;;;21.88;100.00
2339;BME280;1180;51.438;6.978;2022-08-01T03:12:57;100284.97;;;21.92;100.00
2339;BME280;1180;51.438;6.978;2022-08-01T03:15:24;100287.44;;;21.94;100.00
2339;BME280;1180;51.438;6.978;2022-08-01T03:17:52;100293.00;;;21.91;100.00
2339;BME280;1180;51.438;6.978;2022-08-01T03:20:21;100297.69;;;21.96;100.00
2339;BME280;1180;51.438;6.978;2022-08-01T03:22:50;100294.28;;;21.87;100.00
2339;BME280;1180;51.438;6.978;2022-08-01T03:25:18;100301.78;;;21.98;100.00
2339;BME280;1180;51.438;6.978;2022-08-01T03:27:54;100300.50;;;21.94;100.00
2339;BME280;1180;51.438;6.978;2022-08-01T03:30:22;100311.59;;;21.96;100.00
2339;BME280;1180;51.438;6.978;2022-08-01T03:32:49;100300.00;;;21.90;100.00
2339;BME280;1180;51.438;6.978;2022-08-01T03:35:14;100309.63;;;21.82;100.00
2339;BME280;1180;51.438;6.978;2022-08-01T03:37:45;100303.41;;;21.83;100.00
2339;BME280;1180;51.438;6.978;2022-08-01T03:40:20;100311.59;;;21.96;100.00
2339;BME280;1180;51.438;6.978;2022-08-01T03:42:51;100306.69;;;21.85;100.00
2339;BME280;1180;51.438;6.978;2022-08-01T03:45:22;100309.97;;;21.78;100.00
2339;BME280;1180;51.438;6.978;2022-08-01T03:47:50;100308.50;;;21.84;100.00
2339;BME280;1180;51.438;6.978;2022-08-01T03:50:21;100316.16;;;21.94;100.00
2339;BME280;1180;51.438;6.978;2022-08-01T03:52:48;100312.75;;;21.85;100.00
2339;BME280;1180;51.438;6.978;2022-08-01T03:55:15;100315.34;;;21.85;100.00
2339;BME280;1180;51.438;6.978;2022-08-01T03:57:42;100308.31;;;21.86;100.00
2339;BME280;1180;51.438;6.978;2022-08-01T04:00:09;100320.09;;;21.98;100.00
2339;BME280;1180;51.438;6.978;2022-08-01T04:02:35;100311.72;;;22.03;100.00
2339;BME280;1180;51.438;6.978;2022-08-01T04:05:02;100309.63;;;21.98;100.00
2339;BME280;1180;51.438;6.978;2022-08-01T04:07:30;100306.03;;;21.99;100.00
2339;BME280;1180;51.438;6.978;2022-08-01T04:09:55;100308.00;;;21.97;100.00
2339;BME280;1180;51.438;6.978;2022-08-01T04:12:22;100307.34;;;22.03;100.00
2339;BME280;1180;51.438;6.978;2022-08-01T04:14:48;100310.94;;;22.02;100.00
2339;BME280;1180;51.438;6.978;2022-08-01T04:17:15;100313.22;;;21.97;100.00
2339;BME280;1180;51.438;6.978;2022-08-01T04:19:41;100308.00;;;21.97;100.00
2339;BME280;1180;51.438;6.978;2022-08-01T04:22:07;100309.31;;;22.01;100.00
2339;BME280;1180;51.438;6.978;2022-08-01T04:24:34;100305.06;;;22.00;100.00
2339;BME280;1180;51.438;6.978;2022-08-01T04:27:02;100309.94;;;22.03;100.00
2339;BME280;1180;51.438;6.978;2022-08-01T04:29:30;100315.81;;;22.05;100.00
2339;BME280;1180;51.438;6.978;2022-08-01T04:31:58;100321.38;;;22.11;100.00
2339;BME280;1180;51.438;6.978;2022-08-01T04:34:26;100325.47;;;22.13;100.00
2339;BME280;1180;51.438;6.978;2022-08-01T04:36:55;100331.50;;;22.14;100.00
2339;BME280;1180;51.438;6.978;2022-08-01T04:39:23;100333.44;;;22.12;100.00
2339;BME280;1180;51.438;6.978;2022-08-01T04:41:53;100335.75;;;22.06;100.00
2339;BME280;1180;51.438;6.978;2022-08-01T04:44:22;100332.81;;;22.10;100.00
2339;BME280;1180;51.438;6.978;2022-08-01T04:46:48;100339.00;;;22.08;100.00
2339;BME280;1180;51.438;6.978;2022-08-01T04:49:15;100335.59;;;22.08;100.00
2339;BME280;1180;51.438;6.978;2022-08-01T04:51:55;100340.81;;;22.08;100.00
2339;BME280;1180;51.438;6.978;2022-08-01T04:54:28;100347.03;;;22.07;100.00
2339;BME280;1180;51.438;6.978;2022-08-01T04:56:55;100340.50;;;22.11;100.00
2339;BME280;1180;51.438;6.978;2022-08-01T04:59:35;100344.25;;;22.08;100.00
2339;BME280;1180;51.438;6.978;2022-08-01T05:02:11;100341.63;;;22.08;100.00
2339;BME280;1180;51.438;6.978;2022-08-01T05:04:37;100342.13;;;21.96;100.00
2339;BME280;1180;51.438;6.978;2022-08-01T05:07:03;100340.00;;;21.99;100.00
2339;BME280;1180;51.438;6.978;2022-08-01T05:09:30;100343.91;;;22.03;100.00
2339;BME280;1180;51.438;6.978;2022-08-01T05:11:56;100349.78;;;22.05;100.00
2339;BME280;1180;51.438;6.978;2022-08-01T05:14:24;100357.66;;;21.89;100.00
2339;BME280;1180;51.438;6.978;2022-08-01T05:16:49;100354.22;;;21.88;100.00
2339;BME280;1180;51.438;6.978;2022-08-01T05:19:15;100358.94;;;22.01;100.00
2339;BME280;1180;51.438;6.978;2022-08-01T05:21:40;100359.44;;;21.97;100.00
2339;BME280;1180;51.438;6.978;2022-08-01T05:24:06;100360.50;;;21.53;100.00
2339;BME280;1180;51.438;6.978;2022-08-01T05:26:31;100362.81;;;21.56;100.00
2339;BME280;1180;51.438;6.978;2022-08-01T05:28:56;100363.75;;;21.46;100.00
2339;BME280;1180;51.438;6.978;2022-08-01T05:31:22;100371.16;;;21.68;100.00
2339;BME280;1180;51.438;6.978;2022-08-01T05:33:47;100375.25;;;21.78;100.00
2339;BME280;1180;51.438;6.978;2022-08-01T05:36:13;100380.81;;;21.67;100.00
2339;BME280;1180;51.438;6.978;2022-08-01T05:38:38;100376.16;;;21.53;100.00
2339;BME280;1180;51.438;6.978;2022-08-01T05:41:04;100376.00;;;21.54;100.00
2339;BME280;1180;51.438;6.978;2022-08-01T05:43:29;100385.28;;;21.40;100.00
2339;BME280;1180;51.438;6.978;2022-08-01T05:45:55;100383.00;;;21.45;100.00
2339;BME280;1180;51.438;6.978;2022-08-01T05:48:21;100393.13;;;21.48;100.00
2339;BME280;1180;51.438;6.978;2022-08-01T05:50:46;100382.44;;;21.76;100.00
2339;BME280;1180;51.438;6.978;2022-08-01T05:53:13;100387.69;;;22.01;100.00
2339;BME280;1180;51.438;6.978;2022-08-01T05:55:38;100390.81;;;22.13;100.00
2339;BME280;1180;51.438;6.978;2022-08-01T05:58:03;100390.28;;;21.76;100.00
2339;BME280;1180;51.438;6.978;2022-08-01T06:00:28;100389.41;;;21.59;100.00
2339;BME280;1180;51.438;6.978;2022-08-01T06:02:54;100388.97;;;21.81;100.00
2339;BME280;1180;51.438;6.978;2022-08-01T06:05:19;100395.19;;;21.36;100.00
2339;BME280;1180;51.438;6.978;2022-08-01T06:07:45;100393.28;;;21.39;100.00
2339;BME280;1180;51.438;6.978;2022-08-01T06:10:11;100403.09;;;21.45;100.00
2339;BME280;1180;51.438;6.978;2022-08-01T06:12:37;100397.63;;;21.81;100.00
2339;BME280;1180;51.438;6.978;2022-08-01T06:15:03;100389.63;;;21.83;100.00
2339;BME280;1180;51.438;6.978;2022-08-01T06:17:29;100396.97;;;22.04;100.00
2339;BME280;1180;51.438;6.978;2022-08-01T06:19:55;100392.59;;;22.13;100.00
2339;BME280;1180;51.438;6.978;2022-08-01T06:22:21;100400.44;;;21.96;100.00
2339;BME280;1180;51.438;6.978;2022-08-01T06:24:46;100398.31;;;22.08;100.00
2339;BME280;1180;51.438;6.978;2022-08-01T06:27:11;100398.81;;;22.28;100.00
2339;BME280;1180;51.438;6.978;2022-08-01T06:29:37;100396.97;;;22.37;100.00
2339;BME280;1180;51.438;6.978;2022-08-01T06:32:02;100389.81;;;22.47;100.00
2339;BME280;1180;51.438;6.978;2022-08-01T06:34:28;100389.31;;;22.60;100.00
2339;BME280;1180;51.438;6.978;2022-08-01T06:36:53;100393.56;;;22.61;98.81
2339;BME280;1180;51.438;6.978;2022-08-01T06:39:18;100389.44;;;22.67;99.84
2339;BME280;1180;51.438;6.978;2022-08-01T06:41:44;100397.28;;;22.75;100.00
2339;BME280;1180;51.438;6.978;2022-08-01T06:44:11;100400.03;;;22.82;100.00
2339;BME280;1180;51.438;6.978;2022-08-01T06:46:37;100394.25;;;22.95;100.00
2339;BME280;1180;51.438;6.978;2022-08-01T06:49:03;100401.63;;;23.00;99.51
2339;BME280;1180;51.438;6.978;2022-08-01T06:51:28;100397.19;;;23.08;99.19
2339;BME280;1180;51.438;6.978;2022-08-01T06:53:53;100387.00;;;23.14;99.26
2339;BME280;1180;51.438;6.978;2022-08-01T06:56:19;100396.63;;;23.21;97.93
2339;BME280;1180;51.438;6.978;2022-08-01T06:58:45;100398.78;;;23.18;97.20
2339;BME280;1180;51.438;6.978;2022-08-01T07:01:11;100399.56;;;23.18;95.63
2339;BME280;1180;51.438;6.978;2022-08-01T07:03:36;100396.50;;;23.15;96.21
2339;BME280;1180;51.438;6.978;2022-08-01T07:06:02;100390.72;;;23.19;96.28
2339;BME280;1180;51.438;6.978;2022-08-01T07:10:53;100381.25;;;23.27;97.51
2339;BME280;1180;51.438;6.978;2022-08-01T07:13:18;100388.88;;;23.36;97.53
2339;BME280;1180;51.438;6.978;2022-08-01T07:15:48;100388.03;;;23.44;95.09
2339;BME280;1180;51.438;6.978;2022-08-01T07:18:13;100389.00;;;23.43;94.44
2339;BME280;1180;51.438;6.978;2022-08-01T07:20:38;100401.75;;;23.46;93.61
2339;BME280;1180;51.438;6.978;2022-08-01T07:23:04;100392.81;;;23.41;93.91
2339;BME280;1180;51.438;6.978;2022-08-01T07:25:29;100390.56;;;23.29;94.27
2339;BME280;1180;51.438;6.978;2022-08-01T07:27:55;100389.91;;;23.27;94.04
2339;BME280;1180;51.438;6.978;2022-08-01T07:30:20;100395.88;;;23.44;93.76
2339;BME280;1180;51.438;6.978;2022-08-01T07:32:46;100401.69;;;23.63;91.39
2339;BME280;1180;51.438;6.978;2022-08-01T07:35:11;100385.59;;;23.66;91.24
2339;BME280;1180;51.438;6.978;2022-08-01T07:37:36;100391.91;;;23.80;90.83
2339;BME280;1180;51.438;6.978;2022-08-01T07:40:03;100394.31;;;23.82;90.87
2339;BME280;1180;51.438;6.978;2022-08-01T07:42:30;100396.94;;;23.58;91.90
2339;BME280;1180;51.438;6.978;2022-08-01T07:44:56;100405.78;;;23.57;91.72
2339;BME280;1180;51.438;6.978;2022-08-01T07:47:25;100404.34;;;23.55;90.40
2339;BME280;1180;51.438;6.978;2022-08-01T07:49:51;100405.44;;;23.60;89.17
2339;BME280;1180;51.438;6.978;2022-08-01T07:52:17;100401.88;;;23.53;90.92
2339;BME280;1180;51.438;6.978;2022-08-01T07:54:42;100402.09;;;23.43;90.56
2339;BME280;1180;51.438;6.978;2022-08-01T07:57:07;100403.44;;;23.39;91.71
2339;BME280;1180;51.438;6.978;2022-08-01T07:59:33;100400.03;;;23.62;90.63
2339;BME280;1180;51.438;6.978;2022-08-01T08:01:59;100398.00;;;23.49;90.40
2339;BME280;1180;51.438;6.978;2022-08-01T08:04:25;100398.50;;;23.68;91.51
2339;BME280;1180;51.438;6.978;2022-08-01T08:06:50;100402.38;;;23.80;87.37
2339;BME280;1180;51.438;6.978;2022-08-01T08:09:16;100398.41;;;23.84;87.53
2339;BME280;1180;51.438;6.978;2022-08-01T08:11:43;100407.31;;;23.98;87.92
2339;BME280;1180;51.438;6.978;2022-08-01T08:14:09;100413.88;;;24.02;86.17
2339;BME280;1180;51.438;6.978;2022-08-01T08:16:34;100412.16;;;24.09;83.87
2339;BME280;1180;51.438;6.978;2022-08-01T08:18:59;100411.28;;;24.17;84.46
2339;BME280;1180;51.438;6.978;2022-08-01T08:21:25;100404.00;;;24.28;84.88
2339;BME280;1180;51.438;6.978;2022-08-01T08:23:50;100411.41;;;24.24;85.65
2339;BME280;1180;51.438;6.978;2022-08-01T08:26:34;100412.63;;;23.90;85.59
2339;BME280;1180;51.438;6.978;2022-08-01T08:28:59;100423.53;;;23.47;88.50
2339;BME280;1180;51.438;6.978;2022-08-01T08:31:25;100422.16;;;23.59;87.77
2339;BME280;1180;51.438;6.978;2022-08-01T08:33:50;100422.94;;;23.68;87.19
2339;BME280;1180;51.438;6.978;2022-08-01T08:36:16;100425.84;;;23.73;87.44
2339;BME280;1180;51.438;6.978;2022-08-01T08:38:41;100426.94;;;23.56;89.04
2339;BME280;1180;51.438;6.978;2022-08-01T08:41:07;100435.03;;;23.69;87.69
2339;BME280;1180;51.438;6.978;2022-08-01T08:43:34;100423.38;;;24.03;86.72
2339;BME280;1180;51.438;6.978;2022-08-01T08:46:01;100431.56;;;24.23;84.16
2339;BME280;1180;51.438;6.978;2022-08-01T08:48:27;100434.06;;;24.17;83.86
2339;BME280;1180;51.438;6.978;2022-08-01T08:50:52;100439.06;;;24.27;85.23
2339;BME280;1180;51.438;6.978;2022-08-01T08:53:18;100445.94;;;23.81;85.75
2339;BME280;1180;51.438;6.978;2022-08-01T08:55:44;100450.03;;;23.52;87.76
2339;BME280;1180;51.438;6.978;2022-08-01T08:58:14;100449.00;;;23.30;86.34
2339;BME280;1180;51.438;6.978;2022-08-01T09:00:42;100442.81;;;23.54;87.67
2339;BME280;1180;51.438;6.978;2022-08-01T09:03:08;100446.06;;;23.88;85.63
2339;BME280;1180;51.438;6.978;2022-08-01T09:05:33;100430.78;;;23.91;85.20
2339;BME280;1180;51.438;6.978;2022-08-01T09:07:59;100442.31;;;23.82;83.91
2339;BME280;1180;51.438;6.978;2022-08-01T09:10:25;100446.25;;;23.55;84.85
2339;BME280;1180;51.438;6.978;2022-08-01T09:13:11;100446.38;;;23.61;85.06
2339;BME280;1180;51.438;6.978;2022-08-01T09:15:39;100434.69;;;24.04;86.07
2339;BME280;1180;51.438;6.978;2022-08-01T09:18:05;100447.06;;;24.33;83.27
2339;BME280;1180;51.438;6.978;2022-08-01T09:20:31;100449.47;;;24.35;81.61
2339;BME280;1180;51.438;6.978;2022-08-01T09:22:57;100447.06;;;24.33;80.94
2339;BME280;1180;51.438;6.978;2022-08-01T09:25:22;100454.56;;;24.36;80.21
2339;BME280;1180;51.438;6.978;2022-08-01T09:27:48;100454.44;;;24.53;80.38
2339;BME280;1180;51.438;6.978;2022-08-01T09:30:17;100457.50;;;24.57;79.87
2339;BME280;1180;51.438;6.978;2022-08-01T09:33:00;100459.31;;;24.56;78.10
2339;BME280;1180;51.438;6.978;2022-08-01T09:35:31;100466.28;;;24.64;78.05
2339;BME280;1180;51.438;6.978;2022-08-01T09:40:48;100462.91;;;24.78;77.71
2339;BME280;1180;51.438;6.978;2022-08-01T09:43:13;100465.72;;;24.92;76.95
2339;BME280;1180;51.438;6.978;2022-08-01T09:45:39;100464.19;;;25.13;76.54
2339;BME280;1180;51.438;6.978;2022-08-01T09:48:08;100461.28;;;24.92;74.83
2339;BME280;1180;51.438;6.978;2022-08-01T09:50:48;100470.72;;;24.63;76.71
2339;BME280;1180;51.438;6.978;2022-08-01T09:53:14;100468.78;;;24.80;77.09
2339;BME280;1180;51.438;6.978;2022-08-01T09:55:40;100468.69;;;24.89;75.02
2339;BME280;1180;51.438;6.978;2022-08-01T09:58:06;100467.78;;;24.82;77.14
2339;BME280;1180;51.438;6.978;2022-08-01T10:00:33;100471.97;;;24.91;76.30
2339;BME280;1180;51.438;6.978;2022-08-01T10:02:59;100471.31;;;25.04;74.75
2339;BME280;1180;51.438;6.978;2022-08-01T10:05:32;100467.25;;;25.01;74.96
2339;BME280;1180;51.438;6.978;2022-08-01T10:08:01;100470.94;;;24.77;74.95
2339;BME280;1180;51.438;6.978;2022-08-01T10:10:28;100465.59;;;24.70;75.44
2339;BME280;1180;51.438;6.978;2022-08-01T10:12:55;100473.06;;;24.58;75.30
2339;BME280;1180;51.438;6.978;2022-08-01T10:15:21;100471.13;;;24.14;77.78
2339;BME280;1180;51.438;6.978;2022-08-01T10:17:55;100473.16;;;24.27;79.19
2339;BME280;1180;51.438;6.978;2022-08-01T10:20:23;100469.00;;;24.56;77.12
2339;BME280;1180;51.438;6.978;2022-08-01T10:22:50;100468.53;;;24.52;75.92
2339;BME280;1180;51.438;6.978;2022-08-01T10:25:17;100470.31;;;24.75;76.16
2339;BME280;1180;51.438;6.978;2022-08-01T10:27:45;100467.25;;;24.86;75.51
2339;BME280;1180;51.438;6.978;2022-08-01T10:30:14;100470.22;;;25.13;74.35
2339;BME280;1180;51.438;6.978;2022-08-01T10:32:40;100471.69;;;25.31;72.68
2339;BME280;1180;51.438;6.978;2022-08-01T10:35:08;100470.22;;;25.13;73.15
2339;BME280;1180;51.438;6.978;2022-08-01T10:37:34;100470.88;;;24.47;77.54
2339;BME280;1180;51.438;6.978;2022-08-01T10:40:03;100472.06;;;24.21;78.70
2339;BME280;1180;51.438;6.978;2022-08-01T10:42:30;100477.34;;;24.13;79.11
2339;BME280;1180;51.438;6.978;2022-08-01T10:44:56;100476.47;;;23.97;79.07
2339;BME280;1180;51.438;6.978;2022-08-01T10:47:34;100480.81;;;23.50;82.43
2339;BME280;1180;51.438;6.978;2022-08-01T10:50:17;100476.25;;;23.44;82.33
2339;BME280;1180;51.438;6.978;2022-08-01T10:53:03;100472.63;;;23.53;82.35
2339;BME280;1180;51.438;6.978;2022-08-01T10:55:28;100473.59;;;23.84;81.40
2339;BME280;1180;51.438;6.978;2022-08-01T10:57:54;100472.75;;;24.15;80.99
2339;BME280;1180;51.438;6.978;2022-08-01T11:00:21;100470.06;;;24.46;79.14
2339;BME280;1180;51.438;6.978;2022-08-01T11:03:01;100473.78;;;24.90;76.61
2339;BME280;1180;51.438;6.978;2022-08-01T11:05:31;100472.84;;;25.13;75.29
2339;BME280;1180;51.438;6.978;2022-08-01T11:08:02;100475.84;;;25.25;74.47
2339;BME280;1180;51.438;6.978;2022-08-01T11:10:42;100470.03;;;25.60;72.49
2339;BME280;1180;51.438;6.978;2022-08-01T11:13:10;100461.97;;;25.83;69.32
2339;BME280;1180;51.438;6.978;2022-08-01T11:15:37;100471.97;;;24.91;72.93
2339;BME280;1180;51.438;6.978;2022-08-01T11:20:59;100475.16;;;24.01;77.21
2339;BME280;1180;51.438;6.978;2022-08-01T11:23:27;100471.59;;;23.86;78.66
2339;BME280;1180;51.438;6.978;2022-08-01T11:28:26;100473.22;;;24.18;76.55
2339;BME280;1180;51.438;6.978;2022-08-01T11:30:53;100473.75;;;24.37;76.72
2339;BME280;1180;51.438;6.978;2022-08-01T11:38:43;100466.06;;;24.35;74.84
2339;BME280;1180;51.438;6.978;2022-08-01T11:41:10;100470.72;;;24.25;75.81
2339;BME280;1180;51.438;6.978;2022-08-01T11:43:57;100471.38;;;24.65;75.33
2339;BME280;1180;51.438;6.978;2022-08-01T11:54:35;100464.34;;;24.96;71.86
2339;BME280;1180;51.438;6.978;2022-08-01T11:57:03;100465.34;;;25.25;71.96
2339;BME280;1180;51.438;6.978;2022-08-01T11:59:35;100466.84;;;25.34;72.32
2339;BME280;1180;51.438;6.978;2022-08-01T12:02:01;100458.41;;;25.69;69.66
2339;BME280;1180;51.438;6.978;2022-08-01T12:04:44;100466.88;;;25.49;69.38
2339;BME280;1180;51.438;6.978;2022-08-01T12:07:16;100466.34;;;25.09;71.48
2339;BME280;1180;51.438;6.978;2022-08-01T12:09:42;100469.97;;;25.08;72.07
2339;BME280;1180;51.438;6.978;2022-08-01T12:12:09;100472.84;;;25.28;71.58
2339;BME280;1180;51.438;6.978;2022-08-01T12:14:35;100477.22;;;25.21;71.54
2339;BME280;1180;51.438;6.978;2022-08-01T12:17:01;100469.84;;;25.31;69.63
2339;BME280;1180;51.438;6.978;2022-08-01T12:19:26;100471.47;;;25.32;69.49
2339;BME280;1180;51.438;6.978;2022-08-01T12:22:08;100479.66;;;25.07;70.89
2339;BME280;1180;51.438;6.978;2022-08-01T12:24:35;100472.03;;;25.28;69.54
2339;BME280;1180;51.438;6.978;2022-08-01T12:27:00;100469.50;;;25.49;69.15
2339;BME280;1180;51.438;6.978;2022-08-01T12:29:39;100469.94;;;25.53;68.80
2339;BME280;1180;51.438;6.978;2022-08-01T12:32:21;100471.78;;;25.52;69.44
2339;BME280;1180;51.438;6.978;2022-08-01T12:34:48;100472.53;;;25.68;67.31
2339;BME280;1180;51.438;6.978;2022-08-01T12:37:14;100470.19;;;25.43;68.51
2339;BME280;1180;51.438;6.978;2022-08-01T12:39:40;100469.31;;;25.36;70.15
2339;BME280;1180;51.438;6.978;2022-08-01T12:42:07;100475.28;;;25.60;68.55
2339;BME280;1180;51.438;6.978;2022-08-01T12:44:33;100469.66;;;25.63;69.18
2339;BME280;1180;51.438;6.978;2022-08-01T12:47:00;100471.03;;;25.44;68.38
2339;BME280;1180;51.438;6.978;2022-08-01T12:49:26;100471.97;;;25.06;69.32
2339;BME280;1180;51.438;6.978;2022-08-01T12:51:52;100465.63;;;25.00;69.66
2339;BME280;1180;51.438;6.978;2022-08-01T12:54:18;100463.28;;;24.90;68.50
2339;BME280;1180;51.438;6.978;2022-08-01T12:56:44;100477.47;;;25.11;68.62
2339;BME280;1180;51.438;6.978;2022-08-01T12:59:27;100470.06;;;25.00;69.19
2339;BME280;1180;51.438;6.978;2022-08-01T13:01:54;100475.75;;;25.48;68.55
2339;BME280;1180;51.438;6.978;2022-08-01T13:04:21;100468.16;;;25.23;69.80
2339;BME280;1180;51.438;6.978;2022-08-01T13:06:48;100473.22;;;24.95;72.43
2339;BME280;1180;51.438;6.978;2022-08-01T13:09:14;100478.28;;;24.82;73.77
2339;BME280;1180;51.438;6.978;2022-08-01T13:11:40;100480.88;;;24.66;75.20
2339;BME280;1180;51.438;6.978;2022-08-01T13:14:06;100475.25;;;24.70;74.84
2339;BME280;1180;51.438;6.978;2022-08-01T13:16:32;100476.69;;;24.95;73.41
2339;BME280;1180;51.438;6.978;2022-08-01T13:19:09;100477.31;;;25.28;72.24
2339;BME280;1180;51.438;6.978;2022-08-01T13:21:35;100472.94;;;25.35;70.81
2339;BME280;1180;51.438;6.978;2022-08-01T13:24:26;100479.53;;;25.61;68.91
2339;BME280;1180;51.438;6.978;2022-08-01T13:26:56;100476.47;;;25.57;68.70
2339;BME280;1180;51.438;6.978;2022-08-01T13:29:41;100473.25;;;25.77;67.86
2339;BME280;1180;51.438;6.978;2022-08-01T13:32:21;100483.53;;;25.57;67.42
2339;BME280;1180;51.438;6.978;2022-08-01T13:34:47;100480.53;;;25.45;67.19
2339;BME280;1180;51.438;6.978;2022-08-01T13:37:12;100475.81;;;25.40;66.78
2339;BME280;1180;51.438;6.978;2022-08-01T13:39:37;100478.00;;;25.51;68.60
2339;BME280;1180;51.438;6.978;2022-08-01T13:42:15;100477.63;;;25.91;67.69
2339;BME280;1180;51.438;6.978;2022-08-01T13:44:42;100487.56;;;25.74;67.13
2339;BME280;1180;51.438;6.978;2022-08-01T13:47:08;100479.88;;;25.73;67.96
2339;BME280;1180;51.438;6.978;2022-08-01T13:49:34;100480.34;;;25.31;68.99